createdAt,value
2018-07-25T00:01:44.265Z,23.03
2018-07-25T00:04:13.414Z,22.60
2018-07-25T00:06:42.561Z,24.13
2018-07-25T00:09:12.008Z,22.43
2018-07-25T00:11:41.303Z,23.00
2018-07-25T00:14:10.427Z,21.93
2018-07-25T00:16:39.915Z,22.43
2018-07-25T00:19:09.205Z,20.50
2018-07-25T00:21:38.374Z,22.60
2018-07-25T00:24:07.548Z,22.07
2018-07-25T00:26:36.720Z,21.80
2018-07-25T00:29:06.108Z,21.83
2018-07-25T00:31:35.249Z,21.70
2018-07-25T00:34:04.442Z,23.10
2018-07-25T00:36:33.600Z,20.70
2018-07-25T00:39:02.795Z,22.58
2018-07-25T00:41:32.329Z,22.77
2018-07-25T00:44:01.496Z,22.57
2018-07-25T00:46:30.706Z,22.30
2018-07-25T00:48:59.912Z,22.13
2018-07-25T00:51:29.231Z,21.93
2018-07-25T00:53:58.361Z,21.70
2018-07-25T00:56:27.561Z,20.90
2018-07-25T00:58:56.932Z,22.63
2018-07-25T01:01:26.055Z,20.80
2018-07-25T01:03:55.173Z,24.00
2018-07-25T01:06:24.309Z,23.17
2018-07-25T01:08:53.464Z,21.40
2018-07-25T01:11:22.670Z,20.90
2018-07-25T01:13:51.816Z,21.63
2018-07-25T01:16:20.992Z,22.40
2018-07-25T01:18:50.157Z,21.73
2018-07-25T01:21:19.311Z,22.62
2018-07-25T01:23:48.565Z,22.90
2018-07-25T01:26:17.680Z,22.43
2018-07-25T01:28:46.836Z,22.50
2018-07-25T01:31:16.051Z,24.70
2018-07-25T01:33:45.307Z,24.60
2018-07-25T01:36:14.452Z,26.00
2018-07-25T01:38:43.598Z,25.95
2018-07-25T01:41:12.739Z,25.70
2018-07-25T01:43:42.776Z,25.40
2018-07-25T01:46:11.902Z,28.10
2018-07-25T01:48:41.057Z,26.37
2018-07-25T01:51:10.940Z,27.30
2018-07-25T01:53:40.068Z,28.17
2018-07-25T01:56:09.237Z,26.60
2018-07-25T01:58:38.423Z,23.30
2018-07-25T02:01:07.605Z,24.10
2018-07-25T02:03:36.772Z,24.50
2018-07-25T02:06:06.388Z,23.50
2018-07-25T02:08:35.540Z,23.50
2018-07-25T02:11:04.732Z,23.17
2018-07-25T02:13:33.910Z,24.13
2018-07-25T02:16:03.284Z,25.17
2018-07-25T02:18:32.626Z,23.90
2018-07-25T02:21:01.761Z,24.40
2018-07-25T02:23:30.939Z,25.77
2018-07-25T02:26:00.122Z,23.10
2018-07-25T02:28:29.304Z,22.80
2018-07-25T02:30:58.452Z,23.53
2018-07-25T02:33:32.936Z,23.70
2018-07-25T02:36:02.150Z,23.10
2018-07-25T02:38:31.304Z,24.10
2018-07-25T02:41:00.497Z,24.80
2018-07-25T02:43:29.674Z,23.13
2018-07-25T02:45:58.800Z,22.27
2018-07-25T02:48:28.040Z,23.70
2018-07-25T02:50:57.181Z,24.33
2018-07-25T02:53:26.331Z,22.55
2018-07-25T02:55:55.489Z,24.60
2018-07-25T02:58:25.671Z,23.73
2018-07-25T03:00:54.843Z,25.97
2018-07-25T03:03:24.104Z,24.77
2018-07-25T03:05:53.254Z,25.33
2018-07-25T03:08:22.415Z,25.50
2018-07-25T03:10:52.543Z,24.50
2018-07-25T03:13:22.115Z,25.60
2018-07-25T03:16:05.264Z,24.20
2018-07-25T03:18:34.404Z,24.77
2018-07-25T03:21:03.778Z,26.30
2018-07-25T03:23:33.962Z,25.52
2018-07-25T03:26:03.154Z,25.73
2018-07-25T03:28:32.437Z,26.40
2018-07-25T03:31:01.876Z,27.07
2018-07-25T03:33:31.024Z,24.73
2018-07-25T03:36:00.577Z,26.23
2018-07-25T03:38:29.900Z,25.73
2018-07-25T03:40:59.119Z,25.63
2018-07-25T03:43:28.267Z,26.42
2018-07-25T03:45:58.271Z,26.30
2018-07-25T03:48:27.493Z,27.80
2018-07-25T03:50:56.682Z,28.50
2018-07-25T03:53:25.888Z,27.32
2018-07-25T03:55:55.075Z,27.80
2018-07-25T03:58:24.215Z,28.17
2018-07-25T04:00:53.653Z,25.73
2018-07-25T04:03:22.795Z,28.90
2018-07-25T04:05:51.927Z,25.47
2018-07-25T04:08:21.159Z,25.20
2018-07-25T04:10:50.573Z,25.67
2018-07-25T04:13:19.877Z,26.40
2018-07-25T04:15:49.038Z,25.80
2018-07-25T04:18:18.169Z,26.70
2018-07-25T04:20:47.346Z,25.33
2018-07-25T04:23:16.591Z,24.83
2018-07-25T04:25:45.714Z,24.70
2018-07-25T04:28:14.865Z,25.80
2018-07-25T04:30:44.022Z,24.70
2018-07-25T04:33:13.156Z,25.37
2018-07-25T04:35:42.328Z,25.10
2018-07-25T04:38:11.476Z,25.10
2018-07-25T04:40:40.637Z,25.60
2018-07-25T04:43:09.803Z,26.20
2018-07-25T04:45:38.949Z,25.47
2018-07-25T04:48:08.138Z,24.80
2018-07-25T04:50:37.263Z,23.57
2018-07-25T04:53:06.775Z,24.50
2018-07-25T04:55:35.913Z,23.63
2018-07-25T04:58:05.094Z,24.47
2018-07-25T05:00:34.243Z,23.57
2018-07-25T05:03:03.381Z,23.97
2018-07-25T05:05:32.521Z,23.53
2018-07-25T05:08:01.710Z,23.30
2018-07-25T05:10:30.884Z,23.07
2018-07-25T05:13:00.076Z,23.13
2018-07-25T05:15:29.272Z,23.30
2018-07-25T05:17:58.495Z,25.00
2018-07-25T05:20:27.587Z,22.30
2018-07-25T05:22:57.146Z,23.00
2018-07-25T05:25:26.279Z,24.12
2018-07-25T05:27:55.395Z,21.48
2018-07-25T05:30:24.764Z,21.47
2018-07-25T05:32:55.491Z,20.30
2018-07-25T05:35:24.614Z,22.45
2018-07-25T05:37:53.797Z,21.00
2018-07-25T05:40:22.969Z,19.90
2018-07-25T05:42:52.132Z,20.10
2018-07-25T05:45:21.340Z,21.10
2018-07-25T05:47:50.461Z,21.47
2018-07-25T05:50:19.600Z,21.67
2018-07-25T05:52:48.763Z,21.37
2018-07-25T05:55:17.962Z,20.57
2018-07-25T05:57:47.120Z,21.17
2018-07-25T06:00:16.381Z,20.37
2018-07-25T06:02:45.682Z,20.90
2018-07-25T06:05:14.894Z,21.40
2018-07-25T06:07:44.052Z,20.27
2018-07-25T06:10:13.221Z,20.00
2018-07-25T06:12:42.423Z,21.87
2018-07-25T06:15:11.566Z,21.80
2018-07-25T06:17:41.010Z,21.07
2018-07-25T06:20:11.079Z,20.13
2018-07-25T06:22:40.622Z,20.37
2018-07-25T06:25:09.801Z,20.87
2018-07-25T06:27:38.975Z,19.90
2018-07-25T06:30:08.221Z,20.97
2018-07-25T06:32:37.347Z,20.53
2018-07-25T06:35:06.618Z,20.40
2018-07-25T06:37:35.756Z,20.23
2018-07-25T06:40:06.925Z,20.23
2018-07-25T06:42:36.300Z,20.53
2018-07-25T06:45:06.798Z,19.20
2018-07-25T06:47:36.300Z,20.33
2018-07-25T06:50:06.702Z,19.52
2018-07-25T06:52:35.966Z,20.30
2018-07-25T06:55:05.162Z,20.30
2018-07-25T06:57:34.315Z,21.65
2018-07-25T07:00:03.844Z,22.57
2018-07-25T07:02:32.998Z,21.43
2018-07-25T07:05:02.193Z,20.30
2018-07-25T07:07:31.349Z,19.27
2018-07-25T07:10:00.510Z,21.07
2018-07-25T07:12:29.639Z,16.83
2018-07-25T07:14:59.659Z,17.50
2018-07-25T07:17:28.863Z,14.90
2018-07-25T07:19:58.018Z,12.57
2018-07-25T07:22:27.742Z,14.00
2018-07-25T07:24:56.882Z,13.40
2018-07-25T07:27:26.079Z,13.10
2018-07-25T07:29:55.268Z,12.60
2018-07-25T07:32:24.462Z,12.50
2018-07-25T07:34:53.604Z,12.27
2018-07-25T07:37:22.779Z,12.93
2018-07-25T07:39:51.883Z,12.30
2018-07-25T07:42:21.127Z,14.37
2018-07-25T07:44:50.453Z,13.60
2018-07-25T07:47:19.648Z,13.63
2018-07-25T07:49:48.814Z,13.43
2018-07-25T07:52:18.220Z,14.20
2018-07-25T07:54:47.345Z,14.70
2018-07-25T07:57:16.521Z,14.13
2018-07-25T07:59:45.677Z,13.30
2018-07-25T08:02:14.828Z,13.93
2018-07-25T08:04:43.964Z,14.70
2018-07-25T08:07:13.851Z,14.60
2018-07-25T08:09:43.125Z,14.33
2018-07-25T08:12:12.275Z,13.43
2018-07-25T08:14:41.556Z,14.03
2018-07-25T08:17:11.361Z,14.07
2018-07-25T08:19:40.551Z,15.57
2018-07-25T08:22:09.677Z,14.67
2018-07-25T08:24:38.806Z,13.63
2018-07-25T08:27:08.254Z,13.70
2018-07-25T08:29:37.399Z,12.78
2018-07-25T08:32:06.700Z,12.83
2018-07-25T08:34:35.897Z,12.70
2018-07-25T08:37:05.085Z,11.03
2018-07-25T08:39:34.199Z,12.03
2018-07-25T08:42:03.369Z,13.80
2018-07-25T08:44:32.593Z,11.80
2018-07-25T08:47:01.752Z,11.73
2018-07-25T08:49:30.885Z,10.23
2018-07-25T08:52:00.147Z,10.80
2018-07-25T08:54:29.270Z,10.27
2018-07-25T08:56:58.413Z,9.00
2018-07-25T08:59:27.539Z,8.18
2018-07-25T09:01:56.752Z,8.17
2018-07-25T09:04:26.755Z,6.87
2018-07-25T09:06:55.962Z,9.33
2018-07-25T09:09:25.082Z,9.88
2018-07-25T09:11:54.245Z,10.43
2018-07-25T09:14:23.385Z,11.50
2018-07-25T09:16:52.675Z,10.10
2018-07-25T09:19:21.806Z,10.13
2018-07-25T09:21:50.963Z,10.20
2018-07-25T09:24:20.177Z,10.27
2018-07-25T09:26:49.353Z,10.63
2018-07-25T09:29:18.535Z,10.40
2018-07-25T09:31:47.699Z,11.70
2018-07-25T09:34:16.934Z,11.50
2018-07-25T09:36:46.027Z,11.13
2018-07-25T09:39:15.198Z,11.90
2018-07-25T09:41:44.425Z,12.80
2018-07-25T09:44:13.577Z,13.60
2018-07-25T09:46:42.800Z,13.27
2018-07-25T09:49:11.881Z,13.10
2018-07-25T09:51:41.046Z,14.17
2018-07-25T09:54:10.275Z,11.13
2018-07-25T09:56:39.467Z,11.90
2018-07-25T09:59:08.622Z,11.97
2018-07-25T10:01:37.808Z,10.47
2018-07-25T10:04:07.197Z,10.67
2018-07-25T10:06:36.349Z,10.60
2018-07-25T10:09:08.909Z,10.37
2018-07-25T10:11:38.061Z,10.67
2018-07-25T10:14:07.858Z,8.50
2018-07-25T10:16:37.058Z,7.80
2018-07-25T10:19:06.862Z,8.93
2018-07-25T10:21:36.104Z,9.33
2018-07-25T10:24:05.557Z,8.35
2018-07-25T10:26:34.706Z,8.50
2018-07-25T10:29:03.866Z,8.67
2018-07-25T10:31:33.048Z,8.83
2018-07-25T10:34:02.233Z,8.55
2018-07-25T10:36:31.353Z,7.93
2018-07-25T10:39:00.617Z,8.90
2018-07-25T10:41:29.738Z,8.23
2018-07-25T10:43:58.872Z,8.77
2018-07-25T10:46:28.222Z,9.40
2018-07-25T10:48:57.526Z,8.35
2018-07-25T10:51:26.581Z,8.60
2018-07-25T10:53:55.890Z,8.70
2018-07-25T10:56:25.332Z,9.40
2018-07-25T10:58:54.485Z,8.80
2018-07-25T11:01:23.701Z,8.40
2018-07-25T11:03:52.939Z,8.60
2018-07-25T11:06:22.058Z,8.40
2018-07-25T11:08:51.246Z,8.10
2018-07-25T11:11:20.375Z,8.13
2018-07-25T11:13:49.509Z,8.87
2018-07-25T11:16:18.753Z,8.70
2018-07-25T11:18:47.951Z,8.60
2018-07-25T11:21:17.105Z,7.47
2018-07-25T11:23:46.273Z,8.00
2018-07-25T11:26:15.479Z,7.50
2018-07-25T11:28:44.618Z,7.33
2018-07-25T11:31:15.366Z,7.70
2018-07-25T11:33:44.561Z,7.63
2018-07-25T11:36:13.737Z,7.00
2018-07-25T11:38:42.973Z,7.13
2018-07-25T11:41:12.116Z,7.70
2018-07-25T11:43:41.300Z,7.80
2018-07-25T11:46:10.495Z,7.70
2018-07-25T11:48:39.693Z,7.92
2018-07-25T11:51:09.122Z,8.37
2018-07-25T11:53:38.304Z,7.83
2018-07-25T11:56:08.038Z,7.30
2018-07-25T11:58:37.186Z,7.00
2018-07-25T12:01:06.663Z,7.47
2018-07-25T12:03:35.773Z,7.00
2018-07-25T12:06:05.065Z,6.53
2018-07-25T12:08:34.199Z,6.80
2018-07-25T12:11:03.472Z,6.27
2018-07-25T12:13:32.723Z,7.90
2018-07-25T12:16:01.870Z,6.40
2018-07-25T12:18:31.061Z,7.50
2018-07-25T12:21:00.207Z,7.80
2018-07-25T12:23:29.366Z,7.60
2018-07-25T12:25:58.494Z,8.50
2018-07-25T12:28:27.639Z,8.03
2018-07-25T12:30:56.829Z,9.40
2018-07-25T12:33:25.995Z,7.00
2018-07-25T12:35:55.261Z,7.30
2018-07-25T12:38:24.477Z,6.73
2018-07-25T12:40:54.098Z,6.50
2018-07-25T12:43:23.224Z,6.40
2018-07-25T12:45:52.398Z,7.03
2018-07-25T12:48:22.422Z,7.00
2018-07-25T12:50:51.607Z,8.27
2018-07-25T12:53:20.902Z,7.60
2018-07-25T12:55:50.025Z,8.20
2018-07-25T12:58:19.343Z,7.20
2018-07-25T13:00:48.593Z,6.80
2018-07-25T13:03:17.745Z,7.87
2018-07-25T13:05:46.950Z,8.40
2018-07-25T13:08:16.184Z,8.63
2018-07-25T13:10:45.357Z,8.20
2018-07-25T13:13:14.534Z,7.50
2018-07-25T13:15:43.748Z,8.40
2018-07-25T13:18:13.047Z,7.43
2018-07-25T13:20:42.251Z,7.17
2018-07-25T13:23:11.719Z,6.90
2018-07-25T13:25:40.874Z,6.80
2018-07-25T13:28:10.054Z,6.23
2018-07-25T13:30:39.234Z,7.20
2018-07-25T13:33:08.572Z,6.40
2018-07-25T13:35:37.776Z,5.97
2018-07-25T13:38:07.141Z,7.07
2018-07-25T13:40:36.310Z,6.80
2018-07-25T13:43:05.906Z,6.33
2018-07-25T13:45:35.204Z,5.37
2018-07-25T13:48:04.284Z,5.83
2018-07-25T13:50:33.482Z,6.53
2018-07-25T13:53:02.857Z,5.77
2018-07-25T13:55:32.047Z,6.80
2018-07-25T13:58:02.598Z,7.57
2018-07-25T14:00:31.790Z,6.70
2018-07-25T14:03:01.330Z,7.33
2018-07-25T14:05:30.506Z,6.77
2018-07-25T14:08:00.041Z,7.27
2018-07-25T14:10:29.249Z,7.50
2018-07-25T14:12:58.437Z,7.37
2018-07-25T14:15:27.669Z,8.78
2018-07-25T14:17:56.972Z,6.37
2018-07-25T14:20:26.066Z,4.73
2018-07-25T14:22:55.218Z,4.70
2018-07-25T14:25:24.409Z,5.85
2018-07-25T14:27:53.626Z,5.17
2018-07-25T14:30:23.024Z,5.30
2018-07-25T14:32:52.104Z,4.53
2018-07-25T14:35:21.283Z,4.35
2018-07-25T14:37:50.620Z,5.50
2018-07-25T14:40:19.966Z,4.83
2018-07-25T14:42:49.118Z,4.83
2018-07-25T14:45:18.300Z,4.00
2018-07-25T14:47:47.477Z,4.40
2018-07-25T14:50:17.209Z,7.07
2018-07-25T14:52:46.415Z,4.07
2018-07-25T14:55:15.576Z,4.70
2018-07-25T14:57:44.789Z,4.70
2018-07-25T15:00:13.989Z,4.77
2018-07-25T15:02:43.186Z,6.03
2018-07-25T15:05:12.342Z,5.07
2018-07-25T15:07:42.147Z,4.73
2018-07-25T15:10:11.379Z,4.90
2018-07-25T15:12:42.507Z,5.10
2018-07-25T15:15:12.589Z,5.73
2018-07-25T15:17:41.793Z,4.83
2018-07-25T15:20:11.308Z,6.93
2018-07-25T15:22:40.601Z,5.80
2018-07-25T15:25:10.205Z,5.90
2018-07-25T15:27:39.347Z,6.60
2018-07-25T15:30:09.748Z,7.20
2018-07-25T15:32:38.930Z,7.93
2018-07-25T15:35:08.835Z,8.23
2018-07-25T15:37:38.143Z,7.63
2018-07-25T15:40:07.915Z,8.30
2018-07-25T15:42:37.086Z,8.20
2018-07-25T15:45:06.583Z,8.13
2018-07-25T15:47:35.756Z,8.53
2018-07-25T15:50:05.939Z,7.67
2018-07-25T15:52:35.154Z,7.70
2018-07-25T15:55:04.355Z,8.00
2018-07-25T15:57:33.694Z,7.90
2018-07-25T16:00:03.026Z,8.20
2018-07-25T16:02:32.251Z,8.00
2018-07-25T16:05:01.404Z,7.03
2018-07-25T16:07:30.585Z,8.33
2018-07-25T16:09:59.787Z,7.37
2018-07-25T16:12:28.896Z,7.93
2018-07-25T16:14:58.129Z,7.57
2018-07-25T16:17:27.293Z,6.72
2018-07-25T16:19:56.484Z,6.40
2018-07-25T16:22:25.648Z,7.30
2018-07-25T16:24:54.834Z,7.47
2018-07-25T16:27:24.075Z,6.75
2018-07-25T16:29:53.313Z,6.40
2018-07-25T16:32:22.450Z,6.30
2018-07-25T16:34:51.588Z,7.50
2018-07-25T16:37:20.815Z,6.62
2018-07-25T16:39:49.973Z,7.07
2018-07-25T16:42:19.483Z,5.97
2018-07-25T16:44:48.664Z,6.80
2018-07-25T16:47:17.841Z,6.70
2018-07-25T16:49:47.008Z,6.90
2018-07-25T16:52:16.173Z,7.00
2018-07-25T16:54:45.731Z,7.28
2018-07-25T16:57:14.897Z,7.83
2018-07-25T16:59:44.100Z,7.03
2018-07-25T17:02:13.269Z,7.03
2018-07-25T17:04:42.437Z,6.77
2018-07-25T17:07:11.763Z,5.00
2018-07-25T17:09:40.921Z,4.00
2018-07-25T17:12:10.149Z,3.80
2018-07-25T17:14:39.830Z,3.97
2018-07-25T17:17:09.302Z,3.60
2018-07-25T17:19:38.499Z,4.33
2018-07-25T17:22:07.660Z,4.10
2018-07-25T17:24:36.850Z,3.93
2018-07-25T17:27:06.210Z,4.80
2018-07-25T17:29:35.372Z,4.53
2018-07-25T17:32:04.541Z,4.13
2018-07-25T17:34:33.697Z,3.93
2018-07-25T17:37:02.899Z,4.30
2018-07-25T17:39:32.074Z,3.80
2018-07-25T17:42:01.318Z,4.90
2018-07-25T17:44:30.485Z,3.20
2018-07-25T17:46:59.645Z,2.40
2018-07-25T17:49:28.815Z,2.33
2018-07-25T17:51:58.010Z,2.07
2018-07-25T17:54:27.169Z,2.53
2018-07-25T17:56:56.369Z,2.35
2018-07-25T17:59:25.469Z,2.23
2018-07-25T18:01:54.633Z,2.10
2018-07-25T18:04:24.846Z,1.90
2018-07-25T18:06:54.124Z,2.23
2018-07-25T18:09:23.261Z,2.27
2018-07-25T18:11:52.533Z,2.80
2018-07-25T18:14:23.191Z,2.10
2018-07-25T18:16:52.386Z,2.60
2018-07-25T18:19:21.592Z,2.22
2018-07-25T18:21:50.820Z,2.10
2018-07-25T18:24:20.013Z,2.70
2018-07-25T18:26:52.407Z,1.90
2018-07-25T18:29:21.651Z,1.90
2018-07-25T18:31:50.748Z,2.03
2018-07-25T18:34:19.958Z,1.33
2018-07-25T18:36:49.496Z,1.60
2018-07-25T18:39:18.652Z,1.80
2018-07-25T18:41:47.887Z,1.30
2018-07-25T18:44:17.927Z,1.37
2018-07-25T18:46:47.139Z,1.63
2018-07-25T18:49:16.305Z,1.50
2018-07-25T18:51:45.521Z,1.20
2018-07-25T18:54:14.710Z,1.30
2018-07-25T18:56:43.898Z,1.70
2018-07-25T18:59:13.107Z,1.50
2018-07-25T19:01:42.351Z,1.43
2018-07-25T19:04:11.476Z,1.37
2018-07-25T19:06:40.685Z,1.30
2018-07-25T19:09:13.922Z,1.60
2018-07-25T19:11:43.142Z,1.47
2018-07-25T19:14:17.567Z,1.70
2018-07-25T19:16:46.753Z,2.00
2018-07-25T19:19:16.012Z,1.35
2018-07-25T19:21:45.198Z,1.60
2018-07-25T19:24:14.367Z,1.67
2018-07-25T19:26:43.497Z,1.70
2018-07-25T19:29:12.701Z,1.70
2018-07-25T19:31:41.849Z,1.30
2018-07-25T19:34:11.294Z,1.17
2018-07-25T19:36:40.462Z,1.12
2018-07-25T19:39:10.650Z,2.27
2018-07-25T19:41:39.815Z,1.73
2018-07-25T19:44:09.075Z,1.63
2018-07-25T19:46:38.216Z,1.90
2018-07-25T19:49:07.536Z,2.40
2018-07-25T19:51:36.761Z,2.37
2018-07-25T19:54:06.083Z,1.70
2018-07-25T19:56:35.263Z,1.90
2018-07-25T19:59:04.538Z,1.87
2018-07-25T20:01:33.795Z,1.83
2018-07-25T20:04:03.083Z,1.70
2018-07-25T20:06:32.306Z,2.23
2018-07-25T20:09:01.518Z,1.77
2018-07-25T20:11:30.786Z,1.40
2018-07-25T20:14:05.218Z,1.63
2018-07-25T20:16:34.331Z,1.47
2018-07-25T20:19:03.502Z,2.13
2018-07-25T20:21:33.807Z,2.00
2018-07-25T20:24:03.266Z,2.10
2018-07-25T20:26:34.556Z,2.15
2018-07-25T20:29:03.726Z,1.97
2018-07-25T20:31:32.885Z,1.70
2018-07-25T20:34:02.115Z,1.90
2018-07-25T20:36:31.265Z,2.53
2018-07-25T20:39:00.528Z,2.20
2018-07-25T20:41:29.687Z,2.20
2018-07-25T20:43:58.840Z,2.40
2018-07-25T20:46:27.974Z,2.27
2018-07-25T20:48:57.119Z,2.60
2018-07-25T20:51:26.390Z,2.67
2018-07-25T20:53:55.744Z,2.63
2018-07-25T20:56:24.932Z,1.80
2018-07-25T20:58:54.086Z,3.07
2018-07-25T21:01:23.238Z,2.23
2018-07-25T21:03:52.392Z,1.70
2018-07-25T21:06:21.545Z,2.50
2018-07-25T21:08:50.674Z,1.83
2018-07-25T21:11:20.022Z,1.98
2018-07-25T21:13:49.176Z,2.13
2018-07-25T21:16:18.581Z,2.47
2018-07-25T21:18:47.900Z,2.70
2018-07-25T21:21:17.265Z,3.45
2018-07-25T21:23:46.512Z,2.93
2018-07-25T21:26:15.819Z,3.43
2018-07-25T21:28:44.969Z,3.30
2018-07-25T21:31:14.123Z,3.10
2018-07-25T21:33:43.309Z,3.40
2018-07-25T21:36:12.592Z,3.67
2018-07-25T21:38:41.816Z,3.67
2018-07-25T21:41:11.352Z,4.25
2018-07-25T21:43:40.514Z,5.73
2018-07-25T21:46:09.662Z,4.77
2018-07-25T21:48:38.822Z,6.20
2018-07-25T21:51:08.111Z,5.43
2018-07-25T21:53:37.298Z,5.63
2018-07-25T21:56:06.569Z,5.43
2018-07-25T21:58:35.754Z,5.50
2018-07-25T22:01:13.517Z,4.97
2018-07-25T22:03:42.757Z,4.63
2018-07-25T22:06:11.849Z,5.10
2018-07-25T22:08:40.997Z,4.93
2018-07-25T22:11:10.174Z,5.27
2018-07-25T22:13:43.596Z,6.33
2018-07-25T22:16:13.133Z,6.07
2018-07-25T22:18:42.418Z,5.10
2018-07-25T22:21:11.838Z,6.27
2018-07-25T22:23:41.060Z,5.67
2018-07-25T22:26:10.200Z,6.60
2018-07-25T22:28:39.564Z,5.70
2018-07-25T22:31:08.957Z,6.27
2018-07-25T22:33:38.120Z,6.53
2018-07-25T22:36:07.895Z,5.70
2018-07-25T22:38:37.004Z,6.03
2018-07-25T22:41:06.616Z,6.20
2018-07-25T22:43:35.989Z,6.10
2018-07-25T22:46:05.284Z,6.60
2018-07-25T22:48:35.193Z,6.67
2018-07-25T22:51:04.343Z,6.60
2018-07-25T22:53:33.500Z,7.40
2018-07-25T22:56:02.855Z,5.80
2018-07-25T22:58:32.014Z,6.80
2018-07-25T23:01:01.175Z,6.50
2018-07-25T23:03:30.322Z,6.47
2018-07-25T23:05:59.511Z,6.70
2018-07-25T23:08:30.291Z,6.73
2018-07-25T23:10:59.441Z,6.40
2018-07-25T23:13:28.616Z,6.15
2018-07-25T23:15:58.035Z,6.00
2018-07-25T23:18:27.249Z,5.90
2018-07-25T23:20:56.419Z,5.80
2018-07-25T23:23:25.585Z,5.87
2018-07-25T23:25:54.714Z,6.50
2018-07-25T23:28:23.916Z,5.90
2018-07-25T23:30:53.118Z,5.60
2018-07-25T23:33:22.430Z,6.20
2018-07-25T23:35:51.599Z,6.80
2018-07-25T23:38:20.750Z,6.25
2018-07-25T23:40:50.345Z,6.37
2018-07-25T23:43:19.528Z,5.47
2018-07-25T23:45:48.688Z,5.50
2018-07-25T23:48:17.888Z,6.07
2018-07-25T23:50:47.177Z,4.97
2018-07-25T23:53:16.324Z,5.80
2018-07-25T23:55:45.510Z,6.30
2018-07-25T23:58:14.668Z,6.40
